sensor_id;sensor_type;location;lat;lon;timestamp;temperature;humidity
56103;DHT22;41970;48.774;9.280;2023-07-31T00:00:30;16.90;99.90
56103;DHT22;41970;48.774;9.280;2023-07-31T00:02:56;16.90;99.90
56103;DHT22;41970;48.774;9.280;2023-07-31T00:05:22;16.90;99.90
56103;DHT22;41970;48.774;9.280;2023-07-31T00:07:48;16.90;99.90
56103;DHT22;41970;48.774;9.280;2023-07-31T00:10:13;16.80;99.90
56103;DHT22;41970;48.774;9.280;2023-07-31T00:12:42;16.70;99.90
56103;DHT22;41970;48.774;9.280;2023-07-31T00:15:08;16.70;99.90
56103;DHT22;41970;48.774;9.280;2023-07-31T00:17:35;16.80;99.90
56103;DHT22;41970;48.774;9.280;2023-07-31T00:20:01;16.80;99.90
56103;DHT22;41970;48.774;9.280;2023-07-31T00:22:27;16.80;99.90
56103;DHT22;41970;48.774;9.280;2023-07-31T00:24:53;16.80;99.90
56103;DHT22;41970;48.774;9.280;2023-07-31T00:27:19;16.80;99.90
56103;DHT22;41970;48.774;9.280;2023-07-31T00:29:45;16.70;99.90
56103;DHT22;41970;48.774;9.280;2023-07-31T00:32:11;16.60;99.90
56103;DHT22;41970;48.774;9.280;2023-07-31T00:34:37;16.60;99.90
56103;DHT22;41970;48.774;9.280;2023-07-31T00:37:03;16.60;99.90
56103;DHT22;41970;48.774;9.280;2023-07-31T00:39:30;16.50;99.90
56103;DHT22;41970;48.774;9.280;2023-07-31T00:41:56;16.50;99.90
56103;DHT22;41970;48.774;9.280;2023-07-31T00:44:22;16.50;99.90
56103;DHT22;41970;48.774;9.280;2023-07-31T00:46:48;16.50;99.90
56103;DHT22;41970;48.774;9.280;2023-07-31T00:49:15;16.50;99.90
56103;DHT22;41970;48.774;9.280;2023-07-31T00:51:41;16.50;99.90
56103;DHT22;41970;48.774;9.280;2023-07-31T00:54:07;16.50;99.90
56103;DHT22;41970;48.774;9.280;2023-07-31T00:56:33;16.50;99.90
56103;DHT22;41970;48.774;9.280;2023-07-31T00:58:59;16.40;99.90
56103;DHT22;41970;48.774;9.280;2023-07-31T01:01:25;16.40;99.90
56103;DHT22;41970;48.774;9.280;2023-07-31T01:03:53;16.40;99.90
56103;DHT22;41970;48.774;9.280;2023-07-31T01:09:32;16.40;99.90
56103;DHT22;41970;48.774;9.280;2023-07-31T01:12:03;16.50;99.90
56103;DHT22;41970;48.774;9.280;2023-07-31T01:14:30;16.50;99.90
56103;DHT22;41970;48.774;9.280;2023-07-31T01:16:56;16.40;99.90
56103;DHT22;41970;48.774;9.280;2023-07-31T01:19:23;16.30;99.90
56103;DHT22;41970;48.774;9.280;2023-07-31T01:27:26;16.10;99.90
56103;DHT22;41970;48.774;9.280;2023-07-31T01:30:09;16.10;99.90
56103;DHT22;41970;48.774;9.280;2023-07-31T01:32:41;16.00;99.90
56103;DHT22;41970;48.774;9.280;2023-07-31T01:35:08;15.90;99.90
56103;DHT22;41970;48.774;9.280;2023-07-31T01:37:34;15.90;99.90
56103;DHT22;41970;48.774;9.280;2023-07-31T01:40:00;15.90;99.90
56103;DHT22;41970;48.774;9.280;2023-07-31T01:42:26;16.00;99.90
56103;DHT22;41970;48.774;9.280;2023-07-31T01:44:52;16.00;99.90
56103;DHT22;41970;48.774;9.280;2023-07-31T01:47:18;16.00;99.90
56103;DHT22;41970;48.774;9.280;2023-07-31T01:49:44;16.00;99.90
56103;DHT22;41970;48.774;9.280;2023-07-31T01:52:09;16.00;99.90
56103;DHT22;41970;48.774;9.280;2023-07-31T01:54:35;16.00;99.90
56103;DHT22;41970;48.774;9.280;2023-07-31T01:57:02;16.00;99.90
56103;DHT22;41970;48.774;9.280;2023-07-31T01:59:28;16.10;99.90
56103;DHT22;41970;48.774;9.280;2023-07-31T02:01:54;16.10;99.90
56103;DHT22;41970;48.774;9.280;2023-07-31T02:04:20;16.10;99.90
56103;DHT22;41970;48.774;9.280;2023-07-31T02:06:46;16.10;99.90
56103;DHT22;41970;48.774;9.280;2023-07-31T02:09:12;16.10;99.90
56103;DHT22;41970;48.774;9.280;2023-07-31T02:11:38;15.90;99.90
56103;DHT22;41970;48.774;9.280;2023-07-31T02:14:04;15.80;99.90
56103;DHT22;41970;48.774;9.280;2023-07-31T02:16:30;15.80;99.90
56103;DHT22;41970;48.774;9.280;2023-07-31T02:18:56;15.90;99.90
56103;DHT22;41970;48.774;9.280;2023-07-31T02:21:22;15.90;99.90
56103;DHT22;41970;48.774;9.280;2023-07-31T02:23:47;15.90;99.90
56103;DHT22;41970;48.774;9.280;2023-07-31T02:26:13;15.90;99.90
56103;DHT22;41970;48.774;9.280;2023-07-31T02:28:39;16.00;99.90
56103;DHT22;41970;48.774;9.280;2023-07-31T02:31:08;16.00;99.90
56103;DHT22;41970;48.774;9.280;2023-07-31T02:33:34;16.00;99.90
56103;DHT22;41970;48.774;9.280;2023-07-31T02:36:00;16.00;99.90
56103;DHT22;41970;48.774;9.280;2023-07-31T02:38:25;15.90;99.90
56103;DHT22;41970;48.774;9.280;2023-07-31T02:40:52;15.90;99.90
56103;DHT22;41970;48.774;9.280;2023-07-31T02:43:17;16.00;99.90
56103;DHT22;41970;48.774;9.280;2023-07-31T02:45:44;16.00;99.90
56103;DHT22;41970;48.774;9.280;2023-07-31T02:48:10;16.00;99.90
56103;DHT22;41970;48.774;9.280;2023-07-31T02:50:35;15.90;99.90
56103;DHT22;41970;48.774;9.280;2023-07-31T02:53:01;15.90;99.90
56103;DHT22;41970;48.774;9.280;2023-07-31T02:55:27;15.90;99.90
56103;DHT22;41970;48.774;9.280;2023-07-31T02:57:53;15.90;99.90
56103;DHT22;41970;48.774;9.280;2023-07-31T03:00:19;15.80;99.90
56103;DHT22;41970;48.774;9.280;2023-07-31T03:02:45;15.70;99.90
56103;DHT22;41970;48.774;9.280;2023-07-31T03:05:11;15.70;99.90
56103;DHT22;41970;48.774;9.280;2023-07-31T03:07:36;15.60;99.90
56103;DHT22;41970;48.774;9.280;2023-07-31T03:10:02;15.50;99.90
56103;DHT22;41970;48.774;9.280;2023-07-31T03:12:29;15.60;99.90
56103;DHT22;41970;48.774;9.280;2023-07-31T03:14:55;15.70;99.90
56103;DHT22;41970;48.774;9.280;2023-07-31T03:17:21;15.80;99.90
56103;DHT22;41970;48.774;9.280;2023-07-31T03:19:47;15.80;99.90
56103;DHT22;41970;48.774;9.280;2023-07-31T03:22:13;15.90;99.90
56103;DHT22;41970;48.774;9.280;2023-07-31T03:24:38;16.00;99.90
56103;DHT22;41970;48.774;9.280;2023-07-31T03:27:05;16.00;99.90
56103;DHT22;41970;48.774;9.280;2023-07-31T03:29:31;15.90;99.90
56103;DHT22;41970;48.774;9.280;2023-07-31T03:31:57;15.80;99.90
56103;DHT22;41970;48.774;9.280;2023-07-31T03:34:23;15.80;99.90
56103;DHT22;41970;48.774;9.280;2023-07-31T03:36:48;15.70;99.90
56103;DHT22;41970;48.774;9.280;2023-07-31T03:39:14;15.70;99.90
56103;DHT22;41970;48.774;9.280;2023-07-31T03:41:40;15.70;99.90
56103;DHT22;41970;48.774;9.280;2023-07-31T03:44:06;15.80;99.90
56103;DHT22;41970;48.774;9.280;2023-07-31T03:46:32;15.90;99.90
56103;DHT22;41970;48.774;9.280;2023-07-31T03:48:59;15.90;99.90
56103;DHT22;41970;48.774;9.280;2023-07-31T03:51:25;15.90;99.90
56103;DHT22;41970;48.774;9.280;2023-07-31T03:53:50;15.90;99.90
56103;DHT22;41970;48.774;9.280;2023-07-31T03:56:16;15.80;99.90
56103;DHT22;41970;48.774;9.280;2023-07-31T03:58:42;15.80;99.90
56103;DHT22;41970;48.774;9.280;2023-07-31T04:01:08;15.80;99.90
56103;DHT22;41970;48.774;9.280;2023-07-31T04:03:34;15.80;99.90
56103;DHT22;41970;48.774;9.280;2023-07-31T04:06:00;15.70;99.90
56103;DHT22;41970;48.774;9.280;2023-07-31T04:08:26;15.70;99.90
56103;DHT22;41970;48.774;9.280;2023-07-31T04:10:52;15.70;99.90
56103;DHT22;41970;48.774;9.280;2023-07-31T04:13:17;15.80;99.90
56103;DHT22;41970;48.774;9.280;2023-07-31T04:15:48;15.90;99.90
56103;DHT22;41970;48.774;9.280;2023-07-31T04:18:15;15.90;99.90
56103;DHT22;41970;48.774;9.280;2023-07-31T04:20:41;16.00;99.90
56103;DHT22;41970;48.774;9.280;2023-07-31T04:23:07;16.00;99.90
56103;DHT22;41970;48.774;9.280;2023-07-31T04:25:33;16.00;99.90
56103;DHT22;41970;48.774;9.280;2023-07-31T04:28:00;16.10;99.90
56103;DHT22;41970;48.774;9.280;2023-07-31T04:30:26;16.20;99.90
56103;DHT22;41970;48.774;9.280;2023-07-31T04:32:52;16.20;99.90
56103;DHT22;41970;48.774;9.280;2023-07-31T04:35:18;16.20;99.90
56103;DHT22;41970;48.774;9.280;2023-07-31T04:37:44;16.30;99.90
56103;DHT22;41970;48.774;9.280;2023-07-31T04:40:13;16.30;99.90
56103;DHT22;41970;48.774;9.280;2023-07-31T04:42:39;16.40;99.90
56103;DHT22;41970;48.774;9.280;2023-07-31T04:45:05;16.50;99.90
56103;DHT22;41970;48.774;9.280;2023-07-31T04:47:31;16.50;99.90
56103;DHT22;41970;48.774;9.280;2023-07-31T04:49:57;16.50;99.90
56103;DHT22;41970;48.774;9.280;2023-07-31T04:52:23;16.50;99.90
56103;DHT22;41970;48.774;9.280;2023-07-31T04:54:49;16.40;99.90
56103;DHT22;41970;48.774;9.280;2023-07-31T04:57:14;16.50;99.90
56103;DHT22;41970;48.774;9.280;2023-07-31T04:59:40;16.60;99.90
56103;DHT22;41970;48.774;9.280;2023-07-31T05:02:08;16.50;99.90
56103;DHT22;41970;48.774;9.280;2023-07-31T05:04:34;16.40;99.90
56103;DHT22;41970;48.774;9.280;2023-07-31T05:07:00;16.50;99.90
56103;DHT22;41970;48.774;9.280;2023-07-31T05:09:26;16.50;99.90
56103;DHT22;41970;48.774;9.280;2023-07-31T05:11:51;16.50;99.90
56103;DHT22;41970;48.774;9.280;2023-07-31T05:14:17;16.40;99.90
56103;DHT22;41970;48.774;9.280;2023-07-31T05:16:43;16.50;99.90
56103;DHT22;41970;48.774;9.280;2023-07-31T05:19:09;16.60;99.90
56103;DHT22;41970;48.774;9.280;2023-07-31T05:21:35;16.60;99.90
56103;DHT22;41970;48.774;9.280;2023-07-31T05:24:01;16.40;99.90
56103;DHT22;41970;48.774;9.280;2023-07-31T05:26:27;16.20;99.90
56103;DHT22;41970;48.774;9.280;2023-07-31T05:28:53;16.10;99.90
56103;DHT22;41970;48.774;9.280;2023-07-31T05:31:18;16.10;99.90
56103;DHT22;41970;48.774;9.280;2023-07-31T05:33:44;16.00;99.90
56103;DHT22;41970;48.774;9.280;2023-07-31T05:36:10;15.90;99.90
56103;DHT22;41970;48.774;9.280;2023-07-31T05:38:36;15.90;99.90
56103;DHT22;41970;48.774;9.280;2023-07-31T05:41:02;15.90;99.90
56103;DHT22;41970;48.774;9.280;2023-07-31T05:43:28;15.90;99.90
56103;DHT22;41970;48.774;9.280;2023-07-31T05:45:54;15.90;99.90
56103;DHT22;41970;48.774;9.280;2023-07-31T05:48:19;15.90;99.90
56103;DHT22;41970;48.774;9.280;2023-07-31T05:50:45;16.00;99.90
56103;DHT22;41970;48.774;9.280;2023-07-31T05:53:11;16.00;99.90
56103;DHT22;41970;48.774;9.280;2023-07-31T05:55:37;16.10;99.90
56103;DHT22;41970;48.774;9.280;2023-07-31T05:58:03;16.10;99.90
56103;DHT22;41970;48.774;9.280;2023-07-31T06:00:29;16.20;99.90
56103;DHT22;41970;48.774;9.280;2023-07-31T06:02:55;16.20;99.90
56103;DHT22;41970;48.774;9.280;2023-07-31T06:05:21;16.30;99.90
56103;DHT22;41970;48.774;9.280;2023-07-31T06:07:47;16.40;99.90
56103;DHT22;41970;48.774;9.280;2023-07-31T06:10:13;16.60;99.90
56103;DHT22;41970;48.774;9.280;2023-07-31T06:12:39;16.70;99.90
56103;DHT22;41970;48.774;9.280;2023-07-31T06:15:05;16.80;99.90
56103;DHT22;41970;48.774;9.280;2023-07-31T06:17:31;16.90;99.90
56103;DHT22;41970;48.774;9.280;2023-07-31T06:19:57;17.00;99.90
56103;DHT22;41970;48.774;9.280;2023-07-31T06:22:23;17.00;99.90
56103;DHT22;41970;48.774;9.280;2023-07-31T06:24:49;17.10;99.90
56103;DHT22;41970;48.774;9.280;2023-07-31T06:27:15;17.30;99.90
56103;DHT22;41970;48.774;9.280;2023-07-31T06:29:42;17.40;99.90
56103;DHT22;41970;48.774;9.280;2023-07-31T06:32:08;17.50;99.90
56103;DHT22;41970;48.774;9.280;2023-07-31T06:34:34;17.60;99.90
56103;DHT22;41970;48.774;9.280;2023-07-31T06:37:00;17.80;99.90
56103;DHT22;41970;48.774;9.280;2023-07-31T06:39:26;17.90;99.90
56103;DHT22;41970;48.774;9.280;2023-07-31T06:41:52;18.10;99.90
56103;DHT22;41970;48.774;9.280;2023-07-31T06:44:17;18.30;99.90
56103;DHT22;41970;48.774;9.280;2023-07-31T06:46:43;18.40;99.90
56103;DHT22;41970;48.774;9.280;2023-07-31T06:49:09;18.50;99.90
56103;DHT22;41970;48.774;9.280;2023-07-31T06:51:35;18.50;99.90
56103;DHT22;41970;48.774;9.280;2023-07-31T06:54:01;18.50;99.90
56103;DHT22;41970;48.774;9.280;2023-07-31T06:56:28;18.40;99.90
56103;DHT22;41970;48.774;9.280;2023-07-31T06:58:54;18.50;99.90
56103;DHT22;41970;48.774;9.280;2023-07-31T07:01:20;18.50;99.90
56103;DHT22;41970;48.774;9.280;2023-07-31T07:03:46;18.70;99.90
56103;DHT22;41970;48.774;9.280;2023-07-31T07:06:12;18.80;99.90
56103;DHT22;41970;48.774;9.280;2023-07-31T07:08:38;19.00;99.90
56103;DHT22;41970;48.774;9.280;2023-07-31T07:11:04;19.30;99.90
56103;DHT22;41970;48.774;9.280;2023-07-31T07:13:30;19.50;99.90
56103;DHT22;41970;48.774;9.280;2023-07-31T07:15:55;19.60;99.90
56103;DHT22;41970;48.774;9.280;2023-07-31T07:18:21;19.70;99.90
56103;DHT22;41970;48.774;9.280;2023-07-31T07:20:50;19.80;99.90
56103;DHT22;41970;48.774;9.280;2023-07-31T07:23:16;19.90;99.90
56103;DHT22;41970;48.774;9.280;2023-07-31T07:25:42;20.00;99.90
56103;DHT22;41970;48.774;9.280;2023-07-31T07:28:09;20.30;99.90
56103;DHT22;41970;48.774;9.280;2023-07-31T07:30:35;20.50;99.90
56103;DHT22;41970;48.774;9.280;2023-07-31T07:33:01;20.60;99.90
56103;DHT22;41970;48.774;9.280;2023-07-31T07:35:27;20.70;99.90
56103;DHT22;41970;48.774;9.280;2023-07-31T07:37:54;20.70;99.90
56103;DHT22;41970;48.774;9.280;2023-07-31T07:40:21;20.70;99.90
56103;DHT22;41970;48.774;9.280;2023-07-31T07:42:46;20.80;99.90
56103;DHT22;41970;48.774;9.280;2023-07-31T07:45:13;20.80;99.90
56103;DHT22;41970;48.774;9.280;2023-07-31T07:47:41;20.80;99.90
56103;DHT22;41970;48.774;9.280;2023-07-31T07:50:07;20.80;99.90
56103;DHT22;41970;48.774;9.280;2023-07-31T07:52:33;20.80;99.90
56103;DHT22;41970;48.774;9.280;2023-07-31T07:54:59;20.90;99.90
56103;DHT22;41970;48.774;9.280;2023-07-31T07:57:26;21.20;99.90
56103;DHT22;41970;48.774;9.280;2023-07-31T07:59:52;21.40;99.90
56103;DHT22;41970;48.774;9.280;2023-07-31T08:02:18;21.90;99.90
56103;DHT22;41970;48.774;9.280;2023-07-31T08:04:44;22.10;99.70
56103;DHT22;41970;48.774;9.280;2023-07-31T08:07:13;22.20;98.30
56103;DHT22;41970;48.774;9.280;2023-07-31T08:09:39;22.30;98.60
56103;DHT22;41970;48.774;9.280;2023-07-31T08:12:05;22.60;99.50
56103;DHT22;41970;48.774;9.280;2023-07-31T08:14:32;22.70;97.70
56103;DHT22;41970;48.774;9.280;2023-07-31T08:16:57;23.00;97.30
56103;DHT22;41970;48.774;9.280;2023-07-31T08:19:23;23.20;97.60
56103;DHT22;41970;48.774;9.280;2023-07-31T08:21:49;23.40;97.30
56103;DHT22;41970;48.774;9.280;2023-07-31T08:24:15;23.70;96.30
56103;DHT22;41970;48.774;9.280;2023-07-31T08:26:42;23.90;96.30
56103;DHT22;41970;48.774;9.280;2023-07-31T08:29:08;24.10;96.40
56103;DHT22;41970;48.774;9.280;2023-07-31T08:31:34;24.20;95.10
56103;DHT22;41970;48.774;9.280;2023-07-31T08:34:00;24.20;94.80
56103;DHT22;41970;48.774;9.280;2023-07-31T08:36:26;24.20;95.20
56103;DHT22;41970;48.774;9.280;2023-07-31T08:38:52;24.50;94.50
56103;DHT22;41970;48.774;9.280;2023-07-31T08:41:18;24.50;94.00
56103;DHT22;41970;48.774;9.280;2023-07-31T08:43:45;24.60;93.40
56103;DHT22;41970;48.774;9.280;2023-07-31T08:46:11;24.70;93.20
56103;DHT22;41970;48.774;9.280;2023-07-31T08:48:43;24.60;94.60
56103;DHT22;41970;48.774;9.280;2023-07-31T08:51:13;24.50;94.40
56103;DHT22;41970;48.774;9.280;2023-07-31T08:53:39;24.80;93.40
56103;DHT22;41970;48.774;9.280;2023-07-31T08:56:06;24.90;93.30
56103;DHT22;41970;48.774;9.280;2023-07-31T08:58:32;25.10;93.70
56103;DHT22;41970;48.774;9.280;2023-07-31T09:01:04;25.30;93.00
56103;DHT22;41970;48.774;9.280;2023-07-31T09:03:34;25.60;92.40
56103;DHT22;41970;48.774;9.280;2023-07-31T09:06:03;25.60;91.50
56103;DHT22;41970;48.774;9.280;2023-07-31T09:08:32;25.40;92.00
56103;DHT22;41970;48.774;9.280;2023-07-31T09:11:02;25.30;91.90
56103;DHT22;41970;48.774;9.280;2023-07-31T09:13:32;25.30;92.00
56103;DHT22;41970;48.774;9.280;2023-07-31T09:15:58;25.20;92.10
56103;DHT22;41970;48.774;9.280;2023-07-31T09:18:24;25.00;92.60
56103;DHT22;41970;48.774;9.280;2023-07-31T09:21:05;25.00;92.30
56103;DHT22;41970;48.774;9.280;2023-07-31T09:23:44;24.70;92.80
56103;DHT22;41970;48.774;9.280;2023-07-31T09:26:11;24.70;92.80
56103;DHT22;41970;48.774;9.280;2023-07-31T09:28:53;24.90;92.90
56103;DHT22;41970;48.774;9.280;2023-07-31T09:31:32;25.00;92.00
56103;DHT22;41970;48.774;9.280;2023-07-31T09:33:58;25.00;92.10
56103;DHT22;41970;48.774;9.280;2023-07-31T09:36:29;25.00;92.30
56103;DHT22;41970;48.774;9.280;2023-07-31T09:38:56;24.90;91.80
56103;DHT22;41970;48.774;9.280;2023-07-31T09:41:23;24.70;92.10
56103;DHT22;41970;48.774;9.280;2023-07-31T09:43:55;24.60;92.00
56103;DHT22;41970;48.774;9.280;2023-07-31T09:46:21;24.50;92.10
56103;DHT22;41970;48.774;9.280;2023-07-31T09:48:47;24.40;92.20
56103;DHT22;41970;48.774;9.280;2023-07-31T09:51:13;24.30;92.70
56103;DHT22;41970;48.774;9.280;2023-07-31T09:53:39;24.10;93.30
56103;DHT22;41970;48.774;9.280;2023-07-31T09:56:05;24.00;92.70
56103;DHT22;41970;48.774;9.280;2023-07-31T09:58:34;23.90;92.70
56103;DHT22;41970;48.774;9.280;2023-07-31T10:01:02;23.90;92.50
56103;DHT22;41970;48.774;9.280;2023-07-31T10:03:29;23.90;92.60
56103;DHT22;41970;48.774;9.280;2023-07-31T10:05:57;23.90;92.80
56103;DHT22;41970;48.774;9.280;2023-07-31T10:08:27;23.90;93.00
56103;DHT22;41970;48.774;9.280;2023-07-31T10:10:59;23.80;93.40
56103;DHT22;41970;48.774;9.280;2023-07-31T10:13:28;23.90;93.00
56103;DHT22;41970;48.774;9.280;2023-07-31T10:15:59;23.90;93.50
56103;DHT22;41970;48.774;9.280;2023-07-31T10:18:26;23.80;93.40
56103;DHT22;41970;48.774;9.280;2023-07-31T10:20:53;23.70;93.70
56103;DHT22;41970;48.774;9.280;2023-07-31T10:23:20;23.70;94.10
56103;DHT22;41970;48.774;9.280;2023-07-31T10:25:47;23.90;93.60
56103;DHT22;41970;48.774;9.280;2023-07-31T10:28:14;24.10;92.90
56103;DHT22;41970;48.774;9.280;2023-07-31T10:30:41;24.20;93.40
56103;DHT22;41970;48.774;9.280;2023-07-31T10:33:08;24.40;92.70
56103;DHT22;41970;48.774;9.280;2023-07-31T10:35:34;24.40;92.80
56103;DHT22;41970;48.774;9.280;2023-07-31T10:38:11;24.40;93.00
56103;DHT22;41970;48.774;9.280;2023-07-31T10:40:39;24.40;91.80
56103;DHT22;41970;48.774;9.280;2023-07-31T10:43:06;24.40;91.80
56103;DHT22;41970;48.774;9.280;2023-07-31T10:45:35;24.50;91.60
56103;DHT22;41970;48.774;9.280;2023-07-31T10:48:13;24.60;91.80
56103;DHT22;41970;48.774;9.280;2023-07-31T10:50:51;24.40;91.80
56103;DHT22;41970;48.774;9.280;2023-07-31T10:53:29;24.30;92.10
56103;DHT22;41970;48.774;9.280;2023-07-31T10:56:02;24.20;92.10
56103;DHT22;41970;48.774;9.280;2023-07-31T10:58:33;24.00;92.10
56103;DHT22;41970;48.774;9.280;2023-07-31T11:01:02;24.10;92.00
56103;DHT22;41970;48.774;9.280;2023-07-31T11:03:48;24.20;92.30
56103;DHT22;41970;48.774;9.280;2023-07-31T11:06:15;24.30;92.20
56103;DHT22;41970;48.774;9.280;2023-07-31T11:08:47;24.30;91.90
56103;DHT22;41970;48.774;9.280;2023-07-31T11:11:14;24.40;92.50
56103;DHT22;41970;48.774;9.280;2023-07-31T11:13:51;24.40;92.40
56103;DHT22;41970;48.774;9.280;2023-07-31T11:16:23;24.40;92.40
56103;DHT22;41970;48.774;9.280;2023-07-31T11:18:50;24.40;93.00
56103;DHT22;41970;48.774;9.280;2023-07-31T11:21:25;24.40;91.70
56103;DHT22;41970;48.774;9.280;2023-07-31T11:23:53;24.40;92.30
56103;DHT22;41970;48.774;9.280;2023-07-31T11:26:21;24.30;91.30
56103;DHT22;41970;48.774;9.280;2023-07-31T11:28:49;24.20;91.70
56103;DHT22;41970;48.774;9.280;2023-07-31T11:31:16;24.20;91.80
56103;DHT22;41970;48.774;9.280;2023-07-31T11:33:43;24.20;91.50
56103;DHT22;41970;48.774;9.280;2023-07-31T11:36:17;24.20;91.60
56103;DHT22;41970;48.774;9.280;2023-07-31T11:38:43;24.20;91.50
56103;DHT22;41970;48.774;9.280;2023-07-31T11:41:09;24.10;91.80
56103;DHT22;41970;48.774;9.280;2023-07-31T11:43:35;24.00;91.80
56103;DHT22;41970;48.774;9.280;2023-07-31T11:46:02;24.10;91.80
56103;DHT22;41970;48.774;9.280;2023-07-31T11:48:33;24.10;91.60
56103;DHT22;41970;48.774;9.280;2023-07-31T11:51:05;24.10;91.60
56103;DHT22;41970;48.774;9.280;2023-07-31T11:53:51;24.20;91.60
56103;DHT22;41970;48.774;9.280;2023-07-31T11:56:21;24.10;91.80
56103;DHT22;41970;48.774;9.280;2023-07-31T11:58:53;24.10;92.00
56103;DHT22;41970;48.774;9.280;2023-07-31T12:01:21;24.10;92.10
56103;DHT22;41970;48.774;9.280;2023-07-31T12:03:49;24.10;92.20
56103;DHT22;41970;48.774;9.280;2023-07-31T12:06:15;24.10;92.30
56103;DHT22;41970;48.774;9.280;2023-07-31T12:08:41;24.10;92.40
56103;DHT22;41970;48.774;9.280;2023-07-31T12:11:09;24.20;92.20
56103;DHT22;41970;48.774;9.280;2023-07-31T12:13:40;24.20;92.10
56103;DHT22;41970;48.774;9.280;2023-07-31T12:16:06;24.20;92.30
56103;DHT22;41970;48.774;9.280;2023-07-31T12:18:39;24.10;92.30
56103;DHT22;41970;48.774;9.280;2023-07-31T12:21:07;24.20;92.90
56103;DHT22;41970;48.774;9.280;2023-07-31T12:23:35;24.20;93.00
56103;DHT22;41970;48.774;9.280;2023-07-31T12:28:45;24.20;93.20
56103;DHT22;41970;48.774;9.280;2023-07-31T12:31:13;24.20;93.00
56103;DHT22;41970;48.774;9.280;2023-07-31T12:33:40;24.20;92.90
56103;DHT22;41970;48.774;9.280;2023-07-31T12:36:14;24.20;93.60
56103;DHT22;41970;48.774;9.280;2023-07-31T12:38:41;24.20;93.00
56103;DHT22;41970;48.774;9.280;2023-07-31T12:41:11;24.20;93.10
56103;DHT22;41970;48.774;9.280;2023-07-31T12:43:40;24.30;93.10
56103;DHT22;41970;48.774;9.280;2023-07-31T12:46:06;24.20;92.90
56103;DHT22;41970;48.774;9.280;2023-07-31T12:48:36;24.20;93.30
56103;DHT22;41970;48.774;9.280;2023-07-31T12:51:02;24.10;93.10
56103;DHT22;41970;48.774;9.280;2023-07-31T12:53:29;24.10;93.50
56103;DHT22;41970;48.774;9.280;2023-07-31T12:55:58;24.20;92.90
56103;DHT22;41970;48.774;9.280;2023-07-31T12:58:24;24.30;93.10
56103;DHT22;41970;48.774;9.280;2023-07-31T13:00:51;24.40;92.90
56103;DHT22;41970;48.774;9.280;2023-07-31T13:03:27;24.30;92.30
56103;DHT22;41970;48.774;9.280;2023-07-31T13:05:53;24.10;93.30
56103;DHT22;41970;48.774;9.280;2023-07-31T13:08:19;24.00;93.10
56103;DHT22;41970;48.774;9.280;2023-07-31T13:10:45;23.90;93.30
56103;DHT22;41970;48.774;9.280;2023-07-31T13:13:11;24.00;92.70
56103;DHT22;41970;48.774;9.280;2023-07-31T13:15:37;24.00;92.70
56103;DHT22;41970;48.774;9.280;2023-07-31T13:18:03;24.00;92.70
56103;DHT22;41970;48.774;9.280;2023-07-31T13:20:29;24.00;92.50
56103;DHT22;41970;48.774;9.280;2023-07-31T13:22:55;24.00;93.10
56103;DHT22;41970;48.774;9.280;2023-07-31T13:25:21;24.10;93.40
56103;DHT22;41970;48.774;9.280;2023-07-31T13:27:47;24.10;93.60
56103;DHT22;41970;48.774;9.280;2023-07-31T13:30:13;24.20;94.00
56103;DHT22;41970;48.774;9.280;2023-07-31T13:32:39;24.20;93.10
56103;DHT22;41970;48.774;9.280;2023-07-31T13:35:08;24.30;93.60
56103;DHT22;41970;48.774;9.280;2023-07-31T13:37:35;24.40;93.70
56103;DHT22;41970;48.774;9.280;2023-07-31T13:40:01;24.40;93.60
56103;DHT22;41970;48.774;9.280;2023-07-31T13:42:30;24.40;93.70
56103;DHT22;41970;48.774;9.280;2023-07-31T13:44:56;24.40;92.80
56103;DHT22;41970;48.774;9.280;2023-07-31T13:47:22;24.50;92.90
56103;DHT22;41970;48.774;9.280;2023-07-31T13:49:48;24.40;93.20
56103;DHT22;41970;48.774;9.280;2023-07-31T13:52:14;24.60;92.60
56103;DHT22;41970;48.774;9.280;2023-07-31T13:54:40;24.60;92.70
56103;DHT22;41970;48.774;9.280;2023-07-31T13:57:08;24.70;92.80
56103;DHT22;41970;48.774;9.280;2023-07-31T13:59:34;24.70;92.30
56103;DHT22;41970;48.774;9.280;2023-07-31T14:02:01;24.80;92.30
56103;DHT22;41970;48.774;9.280;2023-07-31T14:04:27;24.80;92.30
56103;DHT22;41970;48.774;9.280;2023-07-31T14:06:52;24.80;93.10
56103;DHT22;41970;48.774;9.280;2023-07-31T14:09:18;24.70;92.40
56103;DHT22;41970;48.774;9.280;2023-07-31T14:11:47;24.70;92.20
56103;DHT22;41970;48.774;9.280;2023-07-31T14:14:13;24.70;92.00
56103;DHT22;41970;48.774;9.280;2023-07-31T14:16:39;24.60;92.60
56103;DHT22;41970;48.774;9.280;2023-07-31T14:19:05;24.60;92.30
56103;DHT22;41970;48.774;9.280;2023-07-31T14:21:33;24.60;93.00
56103;DHT22;41970;48.774;9.280;2023-07-31T14:23:59;24.60;92.80
56103;DHT22;41970;48.774;9.280;2023-07-31T14:26:24;24.70;92.50
56103;DHT22;41970;48.774;9.280;2023-07-31T14:28:53;24.70;92.40
56103;DHT22;41970;48.774;9.280;2023-07-31T14:31:19;24.60;93.00
56103;DHT22;41970;48.774;9.280;2023-07-31T14:33:45;24.60;93.70
56103;DHT22;41970;48.774;9.280;2023-07-31T14:36:10;24.70;93.10
56103;DHT22;41970;48.774;9.280;2023-07-31T14:38:37;24.70;92.70
56103;DHT22;41970;48.774;9.280;2023-07-31T14:41:04;24.70;92.60
56103;DHT22;41970;48.774;9.280;2023-07-31T14:43:30;24.70;92.60
56103;DHT22;41970;48.774;9.280;2023-07-31T14:45:56;24.80;92.80
56103;DHT22;41970;48.774;9.280;2023-07-31T14:48:25;24.80;93.10
56103;DHT22;41970;48.774;9.280;2023-07-31T14:50:51;24.80;92.70
56103;DHT22;41970;48.774;9.280;2023-07-31T14:53:17;24.60;93.10
56103;DHT22;41970;48.774;9.280;2023-07-31T14:55:42;24.70;93.40
56103;DHT22;41970;48.774;9.280;2023-07-31T14:58:08;24.70;93.10
56103;DHT22;41970;48.774;9.280;2023-07-31T15:00:36;24.90;93.20
56103;DHT22;41970;48.774;9.280;2023-07-31T15:03:03;25.00;93.10
56103;DHT22;41970;48.774;9.280;2023-07-31T15:05:29;25.00;93.40
56103;DHT22;41970;48.774;9.280;2023-07-31T15:07:54;24.90;93.50
56103;DHT22;41970;48.774;9.280;2023-07-31T15:10:20;24.90;93.70
56103;DHT22;41970;48.774;9.280;2023-07-31T15:12:46;24.80;93.10
56103;DHT22;41970;48.774;9.280;2023-07-31T15:15:12;24.70;92.80
56103;DHT22;41970;48.774;9.280;2023-07-31T15:17:38;24.90;92.30
56103;DHT22;41970;48.774;9.280;2023-07-31T15:20:05;25.00;91.80
56103;DHT22;41970;48.774;9.280;2023-07-31T15:22:33;25.00;92.00
56103;DHT22;41970;48.774;9.280;2023-07-31T15:24:59;25.00;92.40
56103;DHT22;41970;48.774;9.280;2023-07-31T15:27:25;25.10;92.50
56103;DHT22;41970;48.774;9.280;2023-07-31T15:29:51;25.00;91.80
56103;DHT22;41970;48.774;9.280;2023-07-31T15:32:17;25.00;91.60
56103;DHT22;41970;48.774;9.280;2023-07-31T15:34:43;25.10;91.90
56103;DHT22;41970;48.774;9.280;2023-07-31T15:37:09;25.00;92.50
56103;DHT22;41970;48.774;9.280;2023-07-31T15:39:35;24.90;92.50